createdAt,value
2018-12-22T00:00:58.215Z,22.97
2018-12-22T00:06:02.831Z,22.93
2018-12-22T00:11:07.120Z,23.80
2018-12-22T00:16:11.488Z,25.00
2018-12-22T00:21:15.890Z,24.27
2018-12-22T00:26:20.291Z,25.07
2018-12-22T00:31:25.209Z,27.63
2018-12-22T00:36:32.182Z,25.40
2018-12-22T00:41:36.589Z,25.53
2018-12-22T00:46:40.844Z,26.50
2018-12-22T00:51:45.220Z,21.57
2018-12-22T00:56:49.606Z,19.07
2018-12-22T01:01:54.106Z,16.57
2018-12-22T01:06:58.685Z,17.50
2018-12-22T01:12:02.972Z,18.77
2018-12-22T01:17:07.174Z,17.53
2018-12-22T01:22:11.572Z,17.03
2018-12-22T01:27:15.936Z,17.37
2018-12-22T01:32:20.441Z,17.10
2018-12-22T01:37:24.903Z,20.90
2018-12-22T01:42:30.149Z,18.53
2018-12-22T01:47:34.996Z,19.97
2018-12-22T01:52:39.388Z,18.73
2018-12-22T01:57:43.648Z,24.17
2018-12-22T02:02:47.783Z,20.63
2018-12-22T02:07:52.226Z,21.10
2018-12-22T02:12:56.492Z,19.17
2018-12-22T02:18:00.729Z,20.97
2018-12-22T02:23:05.145Z,21.27
2018-12-22T02:28:09.333Z,23.73
2018-12-22T02:33:14.284Z,24.93
2018-12-22T02:38:19.261Z,21.90
2018-12-22T02:43:23.373Z,23.47
2018-12-22T02:48:28.293Z,22.13
2018-12-22T02:53:33.392Z,17.73
2018-12-22T02:58:37.819Z,15.27
2018-12-22T03:03:42.334Z,22.10
2018-12-22T03:08:46.802Z,16.50
2018-12-22T03:13:51.730Z,15.13
2018-12-22T03:18:55.900Z,15.60
2018-12-22T03:24:00.092Z,14.80
2018-12-22T03:29:04.472Z,18.67
2018-12-22T03:34:08.727Z,19.13
2018-12-22T03:39:12.944Z,21.90
2018-12-22T03:44:17.272Z,24.60
2018-12-22T03:49:22.535Z,23.37
2018-12-22T03:54:26.747Z,23.37
2018-12-22T03:59:31.074Z,22.93
2018-12-22T04:04:35.347Z,17.37
2018-12-22T04:09:39.678Z,18.93
2018-12-22T04:14:43.946Z,19.97
2018-12-22T04:19:48.274Z,22.03
2018-12-22T04:24:54.353Z,24.63
2018-12-22T04:29:58.629Z,23.57
2018-12-22T04:35:02.929Z,26.33
2018-12-22T04:40:07.123Z,24.60
2018-12-22T04:45:12.268Z,25.70
2018-12-22T04:50:20.721Z,25.83
2018-12-22T04:55:25.035Z,24.53
2018-12-22T05:00:29.211Z,25.97
2018-12-22T05:05:33.452Z,17.93
2018-12-22T05:10:37.638Z,25.97
2018-12-22T05:15:41.760Z,36.40
2018-12-22T05:20:46.161Z,29.67
2018-12-22T05:25:50.421Z,29.10
2018-12-22T05:30:55.009Z,30.53
2018-12-22T05:36:01.195Z,24.50
2018-12-22T05:41:08.802Z,24.23
2018-12-22T05:46:31.975Z,25.10
2018-12-22T05:51:37.184Z,26.93
2018-12-22T05:56:41.358Z,30.90
2018-12-22T06:01:45.730Z,33.77
2018-12-22T06:06:50.420Z,27.23
2018-12-22T06:11:54.877Z,26.47
2018-12-22T06:17:00.239Z,27.83
2018-12-22T06:22:04.593Z,28.00
2018-12-22T06:27:08.832Z,30.37
2018-12-22T06:32:13.253Z,32.20
2018-12-22T06:37:17.628Z,30.47
2018-12-22T06:42:22.023Z,24.57
2018-12-22T06:47:26.229Z,26.23
2018-12-22T06:52:30.667Z,30.47
2018-12-22T06:57:35.129Z,33.03
2018-12-22T07:02:39.737Z,26.23
2018-12-22T07:07:43.849Z,24.30
2018-12-22T07:12:48.297Z,25.03
2018-12-22T07:17:52.563Z,23.37
2018-12-22T07:22:57.217Z,22.33
2018-12-22T07:28:01.557Z,23.13
2018-12-22T07:33:05.861Z,24.10
2018-12-22T07:38:10.436Z,21.23
2018-12-22T07:43:14.687Z,21.80
2018-12-22T07:48:19.116Z,28.60
2018-12-22T07:53:24.657Z,26.27
2018-12-22T07:58:29.268Z,28.53
2018-12-22T08:03:33.662Z,26.47
2018-12-22T08:08:38.203Z,24.97
2018-12-22T08:13:42.400Z,29.37
2018-12-22T08:18:46.678Z,26.63
2018-12-22T08:23:50.923Z,25.47
2018-12-22T08:28:55.455Z,22.93
2018-12-22T08:33:59.755Z,20.23
2018-12-22T08:39:05.742Z,24.70
2018-12-22T08:44:10.443Z,18.87
2018-12-22T08:49:14.787Z,19.57
2018-12-22T08:54:18.981Z,23.47
2018-12-22T08:59:23.493Z,21.57
2018-12-22T09:04:27.828Z,22.70
2018-12-22T09:09:32.550Z,19.77
2018-12-22T09:14:36.804Z,18.20
2018-12-22T09:19:41.860Z,18.90
2018-12-22T09:24:46.938Z,18.90
2018-12-22T09:29:52.604Z,18.50
2018-12-22T09:34:57.038Z,16.80
2018-12-22T09:40:01.432Z,18.87
2018-12-22T09:45:07.090Z,18.83
2018-12-22T09:50:12.824Z,22.57
2018-12-22T09:55:17.543Z,19.07
2018-12-22T10:00:22.194Z,16.33
2018-12-22T10:05:26.755Z,16.93
2018-12-22T10:10:31.207Z,16.47
2018-12-22T10:15:36.498Z,18.30
2018-12-22T10:20:41.072Z,19.00
2018-12-22T10:25:54.710Z,21.87
2018-12-22T10:31:00.042Z,21.37
2018-12-22T10:36:04.492Z,23.60
2018-12-22T10:41:08.778Z,20.77
2018-12-22T10:46:13.561Z,16.20
2018-12-22T10:51:24.293Z,14.60
2018-12-22T10:56:24.429Z,14.53
2018-12-22T11:01:28.918Z,14.37
2018-12-22T11:06:33.706Z,14.67
2018-12-22T11:11:38.117Z,18.07
2018-12-22T11:16:42.793Z,17.40
2018-12-22T11:21:47.118Z,18.00
2018-12-22T11:26:51.337Z,17.07
2018-12-22T11:31:55.543Z,15.70
2018-12-22T11:36:59.911Z,19.10
2018-12-22T11:42:04.323Z,18.97
2018-12-22T11:47:19.086Z,20.43
2018-12-22T11:52:23.609Z,23.77
2018-12-22T11:57:27.781Z,24.53
2018-12-22T12:02:32.089Z,22.40
2018-12-22T12:07:36.553Z,19.90
2018-12-22T12:12:40.899Z,19.67
2018-12-22T12:18:14.418Z,17.43
2018-12-22T12:23:18.661Z,18.47
2018-12-22T12:28:23.009Z,19.30
2018-12-22T12:33:27.349Z,19.80
2018-12-22T12:38:31.989Z,19.40
2018-12-22T12:43:36.189Z,18.13
2018-12-22T12:48:40.431Z,15.77
2018-12-22T12:53:45.157Z,22.47
2018-12-22T12:58:50.301Z,22.83
2018-12-22T13:03:54.626Z,22.77
2018-12-22T13:08:58.826Z,25.40
2018-12-22T13:14:11.341Z,23.13
2018-12-22T13:19:16.951Z,18.37
2018-12-22T13:24:26.386Z,16.10
2018-12-22T13:29:31.014Z,16.47
2018-12-22T13:34:35.574Z,18.27
2018-12-22T13:39:40.733Z,18.40
2018-12-22T13:44:45.704Z,19.53
2018-12-22T13:49:50.769Z,18.60
2018-12-22T13:54:55.342Z,18.47
2018-12-22T13:59:59.778Z,22.87
2018-12-22T14:05:05.258Z,27.00
2018-12-22T14:10:11.114Z,20.33
2018-12-22T14:15:18.473Z,21.80
2018-12-22T14:20:24.043Z,18.77
2018-12-22T14:25:30.187Z,20.87
2018-12-22T14:30:34.844Z,27.00
2018-12-22T14:35:44.881Z,27.17
2018-12-22T14:40:50.479Z,27.10
2018-12-22T14:45:55.484Z,28.50
2018-12-22T14:50:59.833Z,26.80
2018-12-22T14:56:05.180Z,24.13
2018-12-22T15:01:11.143Z,21.90
2018-12-22T15:06:21.559Z,21.63
2018-12-22T15:11:26.642Z,19.07
2018-12-22T15:16:34.937Z,22.63
2018-12-22T15:21:39.468Z,28.17
2018-12-22T15:26:44.107Z,25.67
2018-12-22T15:31:48.721Z,21.50
2018-12-22T15:36:53.527Z,22.93
2018-12-22T15:42:00.027Z,25.17
2018-12-22T15:47:06.984Z,26.47
2018-12-22T15:52:15.345Z,23.73
2018-12-22T15:57:23.635Z,23.17
2018-12-22T16:02:37.139Z,23.20
2018-12-22T16:07:42.501Z,23.33
2018-12-22T16:13:06.757Z,17.27
2018-12-22T16:18:12.821Z,18.83
2018-12-22T16:23:18.933Z,20.47
2018-12-22T16:28:27.579Z,22.93
2018-12-22T16:33:52.808Z,25.93
2018-12-22T16:39:00.357Z,19.87
2018-12-22T16:44:07.591Z,18.57
2018-12-22T16:49:19.255Z,22.30
2018-12-22T16:54:33.503Z,25.27
2018-12-22T16:59:38.143Z,22.13
2018-12-22T17:04:44.873Z,23.37
2018-12-22T17:09:50.186Z,23.47
2018-12-22T17:14:55.075Z,25.87
2018-12-22T17:19:59.813Z,21.40
2018-12-22T17:25:15.401Z,21.17
2018-12-22T17:30:20.573Z,22.67
2018-12-22T17:35:25.179Z,22.53
2018-12-22T17:40:33.931Z,22.23
2018-12-22T17:45:49.117Z,21.43
2018-12-22T17:56:18.040Z,21.03
2018-12-22T18:01:22.590Z,22.33
2018-12-22T18:06:29.506Z,21.57
2018-12-22T18:17:01.766Z,24.23
2018-12-22T18:22:09.934Z,22.77
2018-12-22T18:27:15.710Z,21.90
2018-12-22T18:32:21.376Z,25.57
2018-12-22T18:37:26.100Z,24.97
2018-12-22T18:42:37.158Z,26.20
2018-12-22T18:47:43.844Z,25.17
2018-12-22T18:52:48.548Z,21.43
2018-12-22T18:58:01.162Z,23.57
2018-12-22T19:03:07.580Z,22.17
2018-12-22T19:08:14.760Z,22.57
2018-12-22T19:13:22.345Z,22.90
2018-12-22T19:18:30.261Z,20.50
2018-12-22T19:23:35.528Z,24.30
2018-12-22T19:28:39.931Z,23.20
2018-12-22T19:33:53.308Z,24.77
2018-12-22T19:38:56.038Z,24.70
2018-12-22T19:44:03.283Z,24.00
2018-12-22T19:49:11.918Z,24.80
2018-12-22T19:54:23.073Z,22.40
2018-12-22T19:59:28.484Z,25.07
2018-12-22T20:04:33.301Z,23.63
2018-12-22T20:09:37.901Z,21.50
2018-12-22T20:14:42.657Z,24.13
2018-12-22T20:19:47.947Z,27.03
2018-12-22T20:24:53.680Z,24.43
2018-12-22T20:29:59.173Z,25.40
2018-12-22T20:35:03.793Z,24.87
2018-12-22T20:40:08.835Z,21.73
2018-12-22T20:45:14.459Z,22.20
2018-12-22T20:50:18.997Z,21.53
2018-12-22T20:55:23.537Z,24.00
2018-12-22T21:00:28.105Z,22.37
2018-12-22T21:05:33.066Z,24.20
2018-12-22T21:10:38.459Z,23.27
2018-12-22T21:15:43.206Z,21.47
2018-12-22T21:20:48.131Z,21.47
2018-12-22T21:25:53.407Z,23.70
2018-12-22T21:30:58.015Z,26.53
2018-12-22T21:36:02.510Z,26.20
2018-12-22T21:41:07.505Z,23.40
2018-12-22T21:46:13.424Z,21.63
2018-12-22T21:51:22.789Z,25.47
2018-12-22T21:56:30.129Z,25.63
2018-12-22T22:01:38.292Z,26.87
2018-12-22T22:17:43.520Z,32.00
2018-12-22T22:22:48.157Z,27.37
2018-12-22T22:27:53.902Z,27.60
2018-12-22T22:32:59.780Z,26.80
2018-12-22T22:38:04.176Z,27.10
2018-12-22T22:43:08.678Z,30.77
2018-12-22T22:48:13.461Z,25.43
2018-12-22T22:53:20.974Z,30.20
2018-12-22T22:58:25.282Z,26.77
2018-12-22T23:03:30.459Z,26.07
2018-12-22T23:14:03.113Z,26.43
2018-12-22T23:19:08.021Z,22.77
2018-12-22T23:24:12.739Z,24.53
2018-12-22T23:50:10.849Z,19.07
2018-12-22T23:55:20.146Z,20.03
